sensor_id;sensor_type;location;lat;lon;timestamp;P1;durP1;ratioP1;P2;durP2;ratioP2
79361;SDS011;68830;47.566;19.012;2024-03-08T00:02:21;25.35;;;13.70;;
79361;SDS011;68830;47.566;19.012;2024-03-08T00:05:23;18.60;;;11.80;;
79361;SDS011;68830;47.566;19.012;2024-03-08T00:08:25;21.15;;;12.88;;
79361;SDS011;68830;47.566;19.012;2024-03-08T00:11:29;21.30;;;13.68;;
79361;SDS011;68830;47.566;19.012;2024-03-08T00:14:32;27.08;;;15.50;;
79361;SDS011;68830;47.566;19.012;2024-03-08T00:17:35;24.17;;;15.32;;
79361;SDS011;68830;47.566;19.012;2024-03-08T00:20:37;24.63;;;13.32;;
79361;SDS011;68830;47.566;19.012;2024-03-08T00:23:39;22.77;;;12.27;;
79361;SDS011;68830;47.566;19.012;2024-03-08T00:26:43;23.23;;;13.65;;
79361;SDS011;68830;47.566;19.012;2024-03-08T00:29:45;23.80;;;15.00;;
79361;SDS011;68830;47.566;19.012;2024-03-08T00:32:48;22.98;;;14.52;;
79361;SDS011;68830;47.566;19.012;2024-03-08T00:35:51;20.85;;;12.85;;
79361;SDS011;68830;47.566;19.012;2024-03-08T00:38:53;24.25;;;13.85;;
79361;SDS011;68830;47.566;19.012;2024-03-08T00:41:56;26.17;;;14.27;;
79361;SDS011;68830;47.566;19.012;2024-03-08T00:44:58;26.20;;;14.93;;
79361;SDS011;68830;47.566;19.012;2024-03-08T00:48:00;24.83;;;13.95;;
79361;SDS011;68830;47.566;19.012;2024-03-08T00:51:02;24.15;;;12.73;;
79361;SDS011;68830;47.566;19.012;2024-03-08T00:54:06;21.60;;;13.45;;
79361;SDS011;68830;47.566;19.012;2024-03-08T00:57:09;24.60;;;15.10;;
79361;SDS011;68830;47.566;19.012;2024-03-08T01:00:11;25.65;;;13.45;;
79361;SDS011;68830;47.566;19.012;2024-03-08T01:03:14;28.27;;;14.20;;
79361;SDS011;68830;47.566;19.012;2024-03-08T01:06:15;21.40;;;13.35;;
79361;SDS011;68830;47.566;19.012;2024-03-08T01:09:18;22.95;;;14.60;;
79361;SDS011;68830;47.566;19.012;2024-03-08T01:12:21;22.90;;;13.98;;
79361;SDS011;68830;47.566;19.012;2024-03-08T01:15:24;19.65;;;13.27;;
79361;SDS011;68830;47.566;19.012;2024-03-08T01:18:25;23.48;;;13.68;;
79361;SDS011;68830;47.566;19.012;2024-03-08T01:21:29;25.88;;;14.93;;
79361;SDS011;68830;47.566;19.012;2024-03-08T01:24:30;23.98;;;13.90;;
79361;SDS011;68830;47.566;19.012;2024-03-08T01:27:35;26.48;;;15.32;;
79361;SDS011;68830;47.566;19.012;2024-03-08T01:30:38;23.75;;;13.32;;
79361;SDS011;68830;47.566;19.012;2024-03-08T01:33:40;28.40;;;14.55;;
79361;SDS011;68830;47.566;19.012;2024-03-08T01:36:42;26.33;;;14.77;;
79361;SDS011;68830;47.566;19.012;2024-03-08T01:39:43;25.25;;;14.32;;
79361;SDS011;68830;47.566;19.012;2024-03-08T01:42:47;24.08;;;14.73;;
79361;SDS011;68830;47.566;19.012;2024-03-08T01:45:49;22.52;;;13.77;;
79361;SDS011;68830;47.566;19.012;2024-03-08T01:48:51;28.52;;;15.63;;
79361;SDS011;68830;47.566;19.012;2024-03-08T01:51:54;20.52;;;13.95;;
79361;SDS011;68830;47.566;19.012;2024-03-08T01:54:58;27.05;;;15.80;;
79361;SDS011;68830;47.566;19.012;2024-03-08T01:58:04;25.02;;;15.40;;
79361;SDS011;68830;47.566;19.012;2024-03-08T02:01:06;24.08;;;14.68;;
79361;SDS011;68830;47.566;19.012;2024-03-08T02:04:08;26.10;;;15.38;;
79361;SDS011;68830;47.566;19.012;2024-03-08T02:07:11;25.25;;;14.80;;
79361;SDS011;68830;47.566;19.012;2024-03-08T02:10:13;23.40;;;13.80;;
79361;SDS011;68830;47.566;19.012;2024-03-08T02:13:16;25.30;;;13.95;;
79361;SDS011;68830;47.566;19.012;2024-03-08T02:16:20;25.52;;;14.95;;
79361;SDS011;68830;47.566;19.012;2024-03-08T02:19:23;24.65;;;12.88;;
79361;SDS011;68830;47.566;19.012;2024-03-08T02:22:26;26.33;;;15.77;;
79361;SDS011;68830;47.566;19.012;2024-03-08T02:25:28;28.17;;;16.55;;
79361;SDS011;68830;47.566;19.012;2024-03-08T02:28:29;26.02;;;15.75;;
79361;SDS011;68830;47.566;19.012;2024-03-08T02:31:31;20.75;;;14.07;;
79361;SDS011;68830;47.566;19.012;2024-03-08T02:34:34;27.92;;;15.88;;
79361;SDS011;68830;47.566;19.012;2024-03-08T02:37:37;29.52;;;14.55;;
79361;SDS011;68830;47.566;19.012;2024-03-08T02:40:40;29.35;;;16.33;;
79361;SDS011;68830;47.566;19.012;2024-03-08T02:43:41;26.10;;;15.27;;
79361;SDS011;68830;47.566;19.012;2024-03-08T02:46:44;25.90;;;14.80;;
79361;SDS011;68830;47.566;19.012;2024-03-08T02:49:45;29.13;;;14.98;;
79361;SDS011;68830;47.566;19.012;2024-03-08T02:52:49;32.28;;;18.67;;
79361;SDS011;68830;47.566;19.012;2024-03-08T02:55:50;28.65;;;16.52;;
79361;SDS011;68830;47.566;19.012;2024-03-08T02:58:52;34.03;;;15.32;;
79361;SDS011;68830;47.566;19.012;2024-03-08T03:01:54;31.65;;;17.35;;
79361;SDS011;68830;47.566;19.012;2024-03-08T03:04:57;27.58;;;17.15;;
79361;SDS011;68830;47.566;19.012;2024-03-08T03:08:01;32.50;;;18.90;;
79361;SDS011;68830;47.566;19.012;2024-03-08T03:11:03;32.63;;;16.90;;
79361;SDS011;68830;47.566;19.012;2024-03-08T03:14:05;33.60;;;17.15;;
79361;SDS011;68830;47.566;19.012;2024-03-08T03:17:08;39.30;;;17.80;;
79361;SDS011;68830;47.566;19.012;2024-03-08T03:20:11;35.17;;;18.35;;
79361;SDS011;68830;47.566;19.012;2024-03-08T03:23:17;42.10;;;19.30;;
79361;SDS011;68830;47.566;19.012;2024-03-08T03:26:22;33.83;;;17.15;;
79361;SDS011;68830;47.566;19.012;2024-03-08T03:29:24;36.33;;;19.85;;
79361;SDS011;68830;47.566;19.012;2024-03-08T03:32:26;30.73;;;17.55;;
79361;SDS011;68830;47.566;19.012;2024-03-08T03:35:30;34.42;;;18.60;;
79361;SDS011;68830;47.566;19.012;2024-03-08T03:38:33;38.17;;;18.30;;
79361;SDS011;68830;47.566;19.012;2024-03-08T03:41:36;35.20;;;19.83;;
79361;SDS011;68830;47.566;19.012;2024-03-08T03:44:37;37.55;;;18.90;;
79361;SDS011;68830;47.566;19.012;2024-03-08T03:47:39;44.60;;;18.77;;
79361;SDS011;68830;47.566;19.012;2024-03-08T03:50:41;41.28;;;20.27;;
79361;SDS011;68830;47.566;19.012;2024-03-08T03:53:45;42.80;;;20.98;;
79361;SDS011;68830;47.566;19.012;2024-03-08T03:56:46;45.60;;;21.95;;
79361;SDS011;68830;47.566;19.012;2024-03-08T04:02:55;34.55;;;19.30;;
79361;SDS011;68830;47.566;19.012;2024-03-08T04:06:00;40.40;;;20.25;;
79361;SDS011;68830;47.566;19.012;2024-03-08T04:09:05;48.22;;;22.38;;
79361;SDS011;68830;47.566;19.012;2024-03-08T04:12:07;42.00;;;22.15;;
79361;SDS011;68830;47.566;19.012;2024-03-08T04:15:09;36.15;;;19.15;;
79361;SDS011;68830;47.566;19.012;2024-03-08T04:18:13;40.20;;;18.75;;
79361;SDS011;68830;47.566;19.012;2024-03-08T04:21:15;40.55;;;20.67;;
79361;SDS011;68830;47.566;19.012;2024-03-08T04:24:18;41.63;;;19.98;;
79361;SDS011;68830;47.566;19.012;2024-03-08T04:27:20;43.92;;;22.42;;
79361;SDS011;68830;47.566;19.012;2024-03-08T04:30:22;42.08;;;20.90;;
79361;SDS011;68830;47.566;19.012;2024-03-08T04:33:24;47.25;;;22.38;;
79361;SDS011;68830;47.566;19.012;2024-03-08T04:36:26;46.00;;;21.33;;
79361;SDS011;68830;47.566;19.012;2024-03-08T04:39:29;50.25;;;21.75;;
79361;SDS011;68830;47.566;19.012;2024-03-08T04:42:32;48.47;;;22.67;;
79361;SDS011;68830;47.566;19.012;2024-03-08T04:45:35;40.67;;;19.77;;
79361;SDS011;68830;47.566;19.012;2024-03-08T04:48:36;43.33;;;23.02;;
79361;SDS011;68830;47.566;19.012;2024-03-08T04:51:39;47.97;;;22.75;;
79361;SDS011;68830;47.566;19.012;2024-03-08T04:54:43;45.78;;;21.85;;
79361;SDS011;68830;47.566;19.012;2024-03-08T04:57:46;49.80;;;23.30;;
79361;SDS011;68830;47.566;19.012;2024-03-08T05:00:48;44.33;;;20.33;;
79361;SDS011;68830;47.566;19.012;2024-03-08T05:03:51;40.42;;;20.35;;
79361;SDS011;68830;47.566;19.012;2024-03-08T05:07:02;44.65;;;21.38;;
79361;SDS011;68830;47.566;19.012;2024-03-08T05:10:06;46.90;;;21.00;;
79361;SDS011;68830;47.566;19.012;2024-03-08T05:13:08;50.33;;;24.00;;
79361;SDS011;68830;47.566;19.012;2024-03-08T05:16:10;49.13;;;23.10;;
79361;SDS011;68830;47.566;19.012;2024-03-08T05:19:12;52.13;;;23.65;;
79361;SDS011;68830;47.566;19.012;2024-03-08T05:22:14;46.15;;;23.02;;
79361;SDS011;68830;47.566;19.012;2024-03-08T05:25:17;47.28;;;23.90;;
79361;SDS011;68830;47.566;19.012;2024-03-08T05:28:19;51.20;;;22.65;;
79361;SDS011;68830;47.566;19.012;2024-03-08T05:31:22;49.63;;;23.52;;
79361;SDS011;68830;47.566;19.012;2024-03-08T05:34:24;39.58;;;22.15;;
79361;SDS011;68830;47.566;19.012;2024-03-08T05:37:26;49.35;;;22.50;;
79361;SDS011;68830;47.566;19.012;2024-03-08T05:40:29;45.15;;;23.65;;
79361;SDS011;68830;47.566;19.012;2024-03-08T05:43:34;43.22;;;22.95;;
79361;SDS011;68830;47.566;19.012;2024-03-08T05:46:36;38.13;;;19.67;;
79361;SDS011;68830;47.566;19.012;2024-03-08T05:49:38;52.88;;;24.20;;
79361;SDS011;68830;47.566;19.012;2024-03-08T05:52:40;43.92;;;22.55;;
79361;SDS011;68830;47.566;19.012;2024-03-08T05:55:44;46.78;;;22.45;;
79361;SDS011;68830;47.566;19.012;2024-03-08T05:58:46;42.08;;;23.00;;
79361;SDS011;68830;47.566;19.012;2024-03-08T06:01:49;42.40;;;20.80;;
79361;SDS011;68830;47.566;19.012;2024-03-08T06:04:51;41.17;;;21.60;;
79361;SDS011;68830;47.566;19.012;2024-03-08T06:07:53;40.00;;;21.10;;
79361;SDS011;68830;47.566;19.012;2024-03-08T06:10:56;46.70;;;23.25;;
79361;SDS011;68830;47.566;19.012;2024-03-08T06:13:58;49.92;;;22.23;;
79361;SDS011;68830;47.566;19.012;2024-03-08T06:17:01;46.25;;;21.30;;
79361;SDS011;68830;47.566;19.012;2024-03-08T06:20:03;48.40;;;22.88;;
79361;SDS011;68830;47.566;19.012;2024-03-08T06:23:12;50.80;;;24.08;;
79361;SDS011;68830;47.566;19.012;2024-03-08T06:26:15;44.47;;;20.92;;
79361;SDS011;68830;47.566;19.012;2024-03-08T06:29:18;48.75;;;23.70;;
79361;SDS011;68830;47.566;19.012;2024-03-08T06:32:20;43.50;;;23.00;;
79361;SDS011;68830;47.566;19.012;2024-03-08T06:35:21;49.25;;;22.75;;
79361;SDS011;68830;47.566;19.012;2024-03-08T06:38:24;52.10;;;23.27;;
79361;SDS011;68830;47.566;19.012;2024-03-08T06:41:27;46.90;;;22.20;;
79361;SDS011;68830;47.566;19.012;2024-03-08T06:44:30;44.75;;;23.70;;
79361;SDS011;68830;47.566;19.012;2024-03-08T06:47:32;54.00;;;23.70;;
79361;SDS011;68830;47.566;19.012;2024-03-08T06:50:35;41.38;;;20.33;;
79361;SDS011;68830;47.566;19.012;2024-03-08T06:53:38;48.25;;;23.33;;
79361;SDS011;68830;47.566;19.012;2024-03-08T06:56:42;43.03;;;23.27;;
79361;SDS011;68830;47.566;19.012;2024-03-08T06:59:45;39.05;;;19.92;;
79361;SDS011;68830;47.566;19.012;2024-03-08T07:02:47;68.63;;;45.45;;
79361;SDS011;68830;47.566;19.012;2024-03-08T07:05:50;80.20;;;51.83;;
79361;SDS011;68830;47.566;19.012;2024-03-08T07:08:52;94.60;;;57.08;;
79361;SDS011;68830;47.566;19.012;2024-03-08T07:11:55;91.22;;;58.70;;
79361;SDS011;68830;47.566;19.012;2024-03-08T07:14:58;87.10;;;56.65;;
79361;SDS011;68830;47.566;19.012;2024-03-08T07:18:00;95.85;;;57.80;;
79361;SDS011;68830;47.566;19.012;2024-03-08T07:21:02;101.72;;;62.03;;
79361;SDS011;68830;47.566;19.012;2024-03-08T07:24:05;95.57;;;58.67;;
79361;SDS011;68830;47.566;19.012;2024-03-08T07:27:21;103.45;;;62.35;;
79361;SDS011;68830;47.566;19.012;2024-03-08T07:30:24;99.93;;;59.10;;
79361;SDS011;68830;47.566;19.012;2024-03-08T07:33:44;54.83;;;25.77;;
79361;SDS011;68830;47.566;19.012;2024-03-08T07:36:46;58.40;;;26.50;;
79361;SDS011;68830;47.566;19.012;2024-03-08T07:39:48;63.35;;;27.23;;
79361;SDS011;68830;47.566;19.012;2024-03-08T07:42:52;55.20;;;26.88;;
79361;SDS011;68830;47.566;19.012;2024-03-08T07:45:54;52.63;;;24.73;;
79361;SDS011;68830;47.566;19.012;2024-03-08T07:48:56;53.28;;;25.80;;
79361;SDS011;68830;47.566;19.012;2024-03-08T07:51:59;55.45;;;25.75;;
79361;SDS011;68830;47.566;19.012;2024-03-08T07:55:01;51.25;;;25.48;;
79361;SDS011;68830;47.566;19.012;2024-03-08T07:58:04;55.58;;;25.67;;
79361;SDS011;68830;47.566;19.012;2024-03-08T08:01:06;53.97;;;25.70;;
79361;SDS011;68830;47.566;19.012;2024-03-08T08:04:08;66.35;;;39.13;;
79361;SDS011;68830;47.566;19.012;2024-03-08T08:07:14;76.55;;;44.55;;
79361;SDS011;68830;47.566;19.012;2024-03-08T08:10:16;72.57;;;42.97;;
79361;SDS011;68830;47.566;19.012;2024-03-08T08:13:25;72.95;;;44.83;;
79361;SDS011;68830;47.566;19.012;2024-03-08T08:16:29;76.43;;;46.42;;
79361;SDS011;68830;47.566;19.012;2024-03-08T08:19:32;80.53;;;44.33;;
79361;SDS011;68830;47.566;19.012;2024-03-08T08:22:35;78.35;;;46.25;;
79361;SDS011;68830;47.566;19.012;2024-03-08T08:25:36;85.07;;;46.17;;
79361;SDS011;68830;47.566;19.012;2024-03-08T08:28:41;84.93;;;48.17;;
79361;SDS011;68830;47.566;19.012;2024-03-08T08:31:45;76.13;;;46.83;;
79361;SDS011;68830;47.566;19.012;2024-03-08T08:34:47;79.65;;;47.50;;
79361;SDS011;68830;47.566;19.012;2024-03-08T08:37:49;85.45;;;47.63;;
79361;SDS011;68830;47.566;19.012;2024-03-08T08:40:52;86.00;;;48.15;;
79361;SDS011;68830;47.566;19.012;2024-03-08T08:43:55;86.07;;;46.90;;
79361;SDS011;68830;47.566;19.012;2024-03-08T08:47:15;85.85;;;48.47;;
79361;SDS011;68830;47.566;19.012;2024-03-08T08:50:18;91.68;;;49.90;;
79361;SDS011;68830;47.566;19.012;2024-03-08T08:53:27;92.20;;;50.38;;
79361;SDS011;68830;47.566;19.012;2024-03-08T08:56:30;98.57;;;52.90;;
79361;SDS011;68830;47.566;19.012;2024-03-08T08:59:33;81.70;;;48.30;;
79361;SDS011;68830;47.566;19.012;2024-03-08T09:02:38;90.38;;;50.33;;
79361;SDS011;68830;47.566;19.012;2024-03-08T09:05:40;84.63;;;50.92;;
79361;SDS011;68830;47.566;19.012;2024-03-08T09:08:46;94.25;;;49.88;;
79361;SDS011;68830;47.566;19.012;2024-03-08T09:11:49;100.43;;;51.83;;
79361;SDS011;68830;47.566;19.012;2024-03-08T09:14:52;106.63;;;55.95;;
79361;SDS011;68830;47.566;19.012;2024-03-08T09:17:55;96.97;;;52.28;;
79361;SDS011;68830;47.566;19.012;2024-03-08T09:20:56;97.30;;;54.42;;
79361;SDS011;68830;47.566;19.012;2024-03-08T09:23:58;108.22;;;59.67;;
79361;SDS011;68830;47.566;19.012;2024-03-08T09:27:01;94.85;;;53.00;;
79361;SDS011;68830;47.566;19.012;2024-03-08T09:30:04;97.13;;;52.55;;
79361;SDS011;68830;47.566;19.012;2024-03-08T09:36:11;101.68;;;57.53;;
79361;SDS011;68830;47.566;19.012;2024-03-08T09:39:14;102.93;;;56.97;;
79361;SDS011;68830;47.566;19.012;2024-03-08T09:42:18;100.25;;;55.58;;
79361;SDS011;68830;47.566;19.012;2024-03-08T09:45:22;109.47;;;57.60;;
79361;SDS011;68830;47.566;19.012;2024-03-08T09:48:26;89.88;;;53.85;;
79361;SDS011;68830;47.566;19.012;2024-03-08T09:51:28;91.15;;;53.53;;
79361;SDS011;68830;47.566;19.012;2024-03-08T09:54:30;100.40;;;55.42;;
79361;SDS011;68830;47.566;19.012;2024-03-08T09:57:32;88.22;;;49.80;;
79361;SDS011;68830;47.566;19.012;2024-03-08T10:00:35;92.80;;;51.65;;
79361;SDS011;68830;47.566;19.012;2024-03-08T10:03:37;92.93;;;51.58;;
79361;SDS011;68830;47.566;19.012;2024-03-08T10:06:39;92.50;;;52.20;;
79361;SDS011;68830;47.566;19.012;2024-03-08T10:09:41;87.70;;;52.97;;
79361;SDS011;68830;47.566;19.012;2024-03-08T10:12:49;90.10;;;51.92;;
79361;SDS011;68830;47.566;19.012;2024-03-08T10:15:53;84.22;;;51.40;;
79361;SDS011;68830;47.566;19.012;2024-03-08T10:18:56;85.90;;;49.65;;
79361;SDS011;68830;47.566;19.012;2024-03-08T10:21:58;85.00;;;46.67;;
79361;SDS011;68830;47.566;19.012;2024-03-08T10:25:01;81.65;;;50.28;;
79361;SDS011;68830;47.566;19.012;2024-03-08T10:28:04;81.70;;;48.47;;
79361;SDS011;68830;47.566;19.012;2024-03-08T10:31:07;96.15;;;55.70;;
79361;SDS011;68830;47.566;19.012;2024-03-08T10:34:10;98.82;;;52.58;;
79361;SDS011;68830;47.566;19.012;2024-03-08T10:37:14;87.30;;;51.00;;
79361;SDS011;68830;47.566;19.012;2024-03-08T10:40:19;89.30;;;50.03;;
79361;SDS011;68830;47.566;19.012;2024-03-08T10:43:23;83.15;;;48.05;;
79361;SDS011;68830;47.566;19.012;2024-03-08T10:46:35;84.57;;;50.67;;
79361;SDS011;68830;47.566;19.012;2024-03-08T10:49:44;88.13;;;50.17;;
79361;SDS011;68830;47.566;19.012;2024-03-08T10:52:51;89.45;;;47.08;;
79361;SDS011;68830;47.566;19.012;2024-03-08T10:55:54;80.07;;;45.55;;
79361;SDS011;68830;47.566;19.012;2024-03-08T10:58:57;83.40;;;50.25;;
79361;SDS011;68830;47.566;19.012;2024-03-08T11:02:02;101.20;;;59.85;;
79361;SDS011;68830;47.566;19.012;2024-03-08T11:05:06;97.70;;;57.63;;
79361;SDS011;68830;47.566;19.012;2024-03-08T11:08:17;92.00;;;59.90;;
79361;SDS011;68830;47.566;19.012;2024-03-08T11:11:25;93.38;;;58.80;;
79361;SDS011;68830;47.566;19.012;2024-03-08T11:14:43;90.93;;;56.63;;
79361;SDS011;68830;47.566;19.012;2024-03-08T11:17:47;103.93;;;62.80;;
79361;SDS011;68830;47.566;19.012;2024-03-08T11:20:49;95.60;;;61.33;;
79361;SDS011;68830;47.566;19.012;2024-03-08T11:23:58;96.97;;;61.47;;
79361;SDS011;68830;47.566;19.012;2024-03-08T11:27:00;86.75;;;59.47;;
79361;SDS011;68830;47.566;19.012;2024-03-08T11:30:06;98.07;;;61.45;;
79361;SDS011;68830;47.566;19.012;2024-03-08T11:33:21;78.47;;;45.28;;
79361;SDS011;68830;47.566;19.012;2024-03-08T11:36:23;86.25;;;48.42;;
79361;SDS011;68830;47.566;19.012;2024-03-08T11:39:26;77.43;;;45.65;;
79361;SDS011;68830;47.566;19.012;2024-03-08T11:42:30;71.00;;;44.17;;
79361;SDS011;68830;47.566;19.012;2024-03-08T11:45:32;77.40;;;47.17;;
79361;SDS011;68830;47.566;19.012;2024-03-08T11:48:35;77.80;;;48.25;;
79361;SDS011;68830;47.566;19.012;2024-03-08T11:51:38;75.95;;;44.55;;
79361;SDS011;68830;47.566;19.012;2024-03-08T11:54:40;78.10;;;47.05;;
79361;SDS011;68830;47.566;19.012;2024-03-08T11:57:42;72.53;;;44.53;;
79361;SDS011;68830;47.566;19.012;2024-03-08T12:00:45;79.57;;;45.22;;
79361;SDS011;68830;47.566;19.012;2024-03-08T12:03:53;78.60;;;47.15;;
79361;SDS011;68830;47.566;19.012;2024-03-08T12:06:56;77.43;;;47.58;;
79361;SDS011;68830;47.566;19.012;2024-03-08T12:10:16;75.32;;;44.83;;
79361;SDS011;68830;47.566;19.012;2024-03-08T12:13:19;74.78;;;43.90;;
79361;SDS011;68830;47.566;19.012;2024-03-08T12:16:21;72.75;;;43.80;;
79361;SDS011;68830;47.566;19.012;2024-03-08T12:19:26;69.30;;;42.80;;
79361;SDS011;68830;47.566;19.012;2024-03-08T12:22:30;77.88;;;45.10;;
79361;SDS011;68830;47.566;19.012;2024-03-08T12:25:32;74.07;;;44.70;;
79361;SDS011;68830;47.566;19.012;2024-03-08T12:28:37;72.88;;;44.30;;
79361;SDS011;68830;47.566;19.012;2024-03-08T12:31:39;73.18;;;42.70;;
79361;SDS011;68830;47.566;19.012;2024-03-08T12:34:43;76.45;;;43.33;;
79361;SDS011;68830;47.566;19.012;2024-03-08T12:37:48;63.35;;;40.05;;
79361;SDS011;68830;47.566;19.012;2024-03-08T12:40:50;82.93;;;44.97;;
79361;SDS011;68830;47.566;19.012;2024-03-08T12:43:56;71.80;;;41.20;;
79361;SDS011;68830;47.566;19.012;2024-03-08T12:46:58;70.13;;;42.47;;
79361;SDS011;68830;47.566;19.012;2024-03-08T12:50:02;70.68;;;43.25;;
79361;SDS011;68830;47.566;19.012;2024-03-08T12:53:05;66.50;;;40.75;;
79361;SDS011;68830;47.566;19.012;2024-03-08T12:56:09;72.15;;;41.88;;
79361;SDS011;68830;47.566;19.012;2024-03-08T12:59:11;73.93;;;43.47;;
79361;SDS011;68830;47.566;19.012;2024-03-08T13:02:14;72.65;;;45.30;;
79361;SDS011;68830;47.566;19.012;2024-03-08T13:05:19;68.68;;;42.78;;
79361;SDS011;68830;47.566;19.012;2024-03-08T13:08:22;74.22;;;42.75;;
79361;SDS011;68830;47.566;19.012;2024-03-08T13:11:26;69.03;;;41.75;;
79361;SDS011;68830;47.566;19.012;2024-03-08T13:14:29;70.00;;;42.15;;
79361;SDS011;68830;47.566;19.012;2024-03-08T13:17:34;62.38;;;40.85;;
79361;SDS011;68830;47.566;19.012;2024-03-08T13:20:37;69.90;;;42.35;;
79361;SDS011;68830;47.566;19.012;2024-03-08T13:23:48;66.28;;;41.63;;
79361;SDS011;68830;47.566;19.012;2024-03-08T13:26:51;67.75;;;43.10;;
79361;SDS011;68830;47.566;19.012;2024-03-08T13:29:52;63.83;;;41.83;;
79361;SDS011;68830;47.566;19.012;2024-03-08T13:32:55;66.28;;;44.33;;
79361;SDS011;68830;47.566;19.012;2024-03-08T13:35:58;66.07;;;41.80;;
79361;SDS011;68830;47.566;19.012;2024-03-08T13:39:06;66.85;;;43.22;;
79361;SDS011;68830;47.566;19.012;2024-03-08T13:42:17;68.22;;;44.05;;
79361;SDS011;68830;47.566;19.012;2024-03-08T13:45:18;77.80;;;44.25;;
79361;SDS011;68830;47.566;19.012;2024-03-08T13:48:24;67.38;;;43.83;;
79361;SDS011;68830;47.566;19.012;2024-03-08T13:51:27;78.10;;;46.47;;
79361;SDS011;68830;47.566;19.012;2024-03-08T13:54:29;74.10;;;46.85;;
79361;SDS011;68830;47.566;19.012;2024-03-08T13:57:33;68.82;;;41.67;;
79361;SDS011;68830;47.566;19.012;2024-03-08T14:00:35;74.60;;;49.53;;
79361;SDS011;68830;47.566;19.012;2024-03-08T14:03:37;61.72;;;40.78;;
79361;SDS011;68830;47.566;19.012;2024-03-08T14:06:41;62.85;;;38.05;;
79361;SDS011;68830;47.566;19.012;2024-03-08T14:09:44;54.20;;;35.25;;
79361;SDS011;68830;47.566;19.012;2024-03-08T14:12:46;55.70;;;36.25;;
79361;SDS011;68830;47.566;19.012;2024-03-08T14:15:51;61.40;;;37.83;;
79361;SDS011;68830;47.566;19.012;2024-03-08T14:18:54;51.58;;;34.15;;
79361;SDS011;68830;47.566;19.012;2024-03-08T14:21:57;51.95;;;33.95;;
79361;SDS011;68830;47.566;19.012;2024-03-08T14:25:00;59.90;;;37.22;;
79361;SDS011;68830;47.566;19.012;2024-03-08T14:28:06;58.13;;;38.05;;
79361;SDS011;68830;47.566;19.012;2024-03-08T14:31:09;53.80;;;36.92;;
79361;SDS011;68830;47.566;19.012;2024-03-08T14:34:13;54.65;;;36.92;;
79361;SDS011;68830;47.566;19.012;2024-03-08T14:37:18;58.00;;;36.83;;
79361;SDS011;68830;47.566;19.012;2024-03-08T14:40:24;52.95;;;35.13;;
79361;SDS011;68830;47.566;19.012;2024-03-08T14:43:27;50.40;;;33.88;;
79361;SDS011;68830;47.566;19.012;2024-03-08T14:46:29;57.45;;;34.40;;
79361;SDS011;68830;47.566;19.012;2024-03-08T14:49:33;55.15;;;33.67;;
79361;SDS011;68830;47.566;19.012;2024-03-08T14:52:39;49.90;;;35.38;;
79361;SDS011;68830;47.566;19.012;2024-03-08T14:55:42;51.40;;;36.55;;
79361;SDS011;68830;47.566;19.012;2024-03-08T14:58:44;52.63;;;35.55;;
79361;SDS011;68830;47.566;19.012;2024-03-08T15:01:46;50.05;;;34.90;;
79361;SDS011;68830;47.566;19.012;2024-03-08T15:04:48;51.95;;;36.10;;
79361;SDS011;68830;47.566;19.012;2024-03-08T15:08:00;58.95;;;34.85;;
79361;SDS011;68830;47.566;19.012;2024-03-08T15:11:03;55.60;;;34.75;;
79361;SDS011;68830;47.566;19.012;2024-03-08T15:14:05;50.17;;;34.40;;
79361;SDS011;68830;47.566;19.012;2024-03-08T15:17:11;55.85;;;36.28;;
79361;SDS011;68830;47.566;19.012;2024-03-08T15:20:23;47.35;;;32.00;;
79361;SDS011;68830;47.566;19.012;2024-03-08T15:23:33;49.80;;;34.47;;
79361;SDS011;68830;47.566;19.012;2024-03-08T15:26:36;53.00;;;34.22;;
79361;SDS011;68830;47.566;19.012;2024-03-08T15:29:37;59.28;;;36.25;;
79361;SDS011;68830;47.566;19.012;2024-03-08T15:32:42;59.33;;;36.38;;
79361;SDS011;68830;47.566;19.012;2024-03-08T15:38:53;58.17;;;35.83;;
79361;SDS011;68830;47.566;19.012;2024-03-08T15:41:55;62.38;;;36.85;;
79361;SDS011;68830;47.566;19.012;2024-03-08T15:44:57;58.00;;;38.08;;
79361;SDS011;68830;47.566;19.012;2024-03-08T15:47:59;55.78;;;36.13;;
79361;SDS011;68830;47.566;19.012;2024-03-08T15:51:07;53.28;;;34.03;;
79361;SDS011;68830;47.566;19.012;2024-03-08T15:54:11;52.15;;;35.88;;
79361;SDS011;68830;47.566;19.012;2024-03-08T15:57:13;59.20;;;37.00;;
79361;SDS011;68830;47.566;19.012;2024-03-08T16:00:17;57.42;;;35.30;;
79361;SDS011;68830;47.566;19.012;2024-03-08T16:03:40;61.72;;;37.30;;
79361;SDS011;68830;47.566;19.012;2024-03-08T16:06:42;54.67;;;35.33;;
79361;SDS011;68830;47.566;19.012;2024-03-08T16:09:47;50.85;;;35.42;;
79361;SDS011;68830;47.566;19.012;2024-03-08T16:12:51;62.65;;;39.95;;
79361;SDS011;68830;47.566;19.012;2024-03-08T16:15:53;52.88;;;35.28;;
79361;SDS011;68830;47.566;19.012;2024-03-08T16:18:56;52.30;;;34.92;;
79361;SDS011;68830;47.566;19.012;2024-03-08T16:21:58;57.10;;;39.63;;
79361;SDS011;68830;47.566;19.012;2024-03-08T16:25:02;53.88;;;36.15;;
79361;SDS011;68830;47.566;19.012;2024-03-08T16:28:06;52.53;;;32.47;;
79361;SDS011;68830;47.566;19.012;2024-03-08T16:31:09;60.03;;;36.95;;
79361;SDS011;68830;47.566;19.012;2024-03-08T16:34:13;56.20;;;36.65;;
79361;SDS011;68830;47.566;19.012;2024-03-08T16:37:16;59.13;;;38.10;;
79361;SDS011;68830;47.566;19.012;2024-03-08T16:40:20;57.28;;;35.55;;
79361;SDS011;68830;47.566;19.012;2024-03-08T16:43:22;56.78;;;36.53;;
79361;SDS011;68830;47.566;19.012;2024-03-08T16:46:24;52.58;;;32.72;;
79361;SDS011;68830;47.566;19.012;2024-03-08T16:49:32;58.63;;;35.70;;
79361;SDS011;68830;47.566;19.012;2024-03-08T16:52:34;50.03;;;33.53;;
79361;SDS011;68830;47.566;19.012;2024-03-08T16:55:39;47.00;;;32.40;;
79361;SDS011;68830;47.566;19.012;2024-03-08T16:58:42;58.90;;;36.03;;
79361;SDS011;68830;47.566;19.012;2024-03-08T17:01:44;49.28;;;33.53;;
79361;SDS011;68830;47.566;19.012;2024-03-08T17:04:48;55.20;;;34.28;;
79361;SDS011;68830;47.566;19.012;2024-03-08T17:07:50;51.97;;;33.00;;
79361;SDS011;68830;47.566;19.012;2024-03-08T17:10:55;53.58;;;34.95;;
79361;SDS011;68830;47.566;19.012;2024-03-08T17:13:57;57.88;;;34.25;;
79361;SDS011;68830;47.566;19.012;2024-03-08T17:16:59;52.17;;;33.33;;
79361;SDS011;68830;47.566;19.012;2024-03-08T17:20:04;54.42;;;34.22;;
79361;SDS011;68830;47.566;19.012;2024-03-08T17:23:15;48.25;;;34.70;;
79361;SDS011;68830;47.566;19.012;2024-03-08T17:26:19;54.38;;;33.30;;
79361;SDS011;68830;47.566;19.012;2024-03-08T17:29:22;54.30;;;34.38;;
79361;SDS011;68830;47.566;19.012;2024-03-08T17:32:24;50.97;;;35.65;;
79361;SDS011;68830;47.566;19.012;2024-03-08T17:35:27;51.55;;;35.13;;
79361;SDS011;68830;47.566;19.012;2024-03-08T17:38:29;56.88;;;36.88;;
79361;SDS011;68830;47.566;19.012;2024-03-08T17:41:35;52.17;;;34.15;;
79361;SDS011;68830;47.566;19.012;2024-03-08T17:44:37;55.13;;;37.88;;
79361;SDS011;68830;47.566;19.012;2024-03-08T17:47:39;60.55;;;39.72;;